Flight Track Log - Related Links

Times and Time Zones

All times are in EDT time to prevent confusion due to time zone crossing. See the EJA922 flight status page for this flight to view local times or setup timezone preferences in your user account.

Time Position Orientation Groundspeed Altitude Reporting Facility
EDT Latitude Longitude Course Direction KTS MPH feet Rate Location/Type
Tue 08:11:44 AM 41.0833 -73.7167 270° West 180 207 1,500  Level New York TRACON
Tue 08:12:50 AM 41.0833 -73.8167 270° West 237 273 5,500 3,381 Climbing New York TRACON
Tue 08:13:50 AM 41.0500 -73.9000 242° Southwest 262 302 8,600 2,500 Climbing New York TRACON
Tue 08:14:50 AM 41.0167 -73.9833 242° Southwest 304 350 10,500 1,619 Climbing New York TRACON
Tue 08:15:56 AM 40.9500 -74.1167 237° Southwest 366 421 12,000 1,714 Climbing New York TRACON
Tue 08:16:56 AM 40.9167 -74.2500 252° West 383 441 14,100 2,100 Climbing New York TRACON
Tue 08:17:56 AM 40.9167 -74.3833 270° West 376 433 16,200 1,392 Climbing New York TRACON
Tue 08:19:01 AM 40.9164 -74.5275 270° West 410 472 17,000 768 Climbing New York Center
Tue 08:20:01 AM 40.9117 -74.6783 268° West 415 478 17,800 1,091 Climbing New York Center
Tue 08:21:02 AM 40.8903 -74.8117 258° West 420 483 19,200 1,686 Climbing New York Center
Tue 08:22:02 AM 40.8686 -74.9558 259° West 425 489 21,200 1,815 Climbing New York Center
Tue 08:23:01 AM 40.8489 -75.1025 260° West 420 483 22,800 1,500 Climbing New York Center
Tue 08:24:02 AM 40.8250 -75.2356 257° West 420 483 24,200 1,488 Climbing New York Center
Tue 08:25:02 AM 40.7975 -75.4144 259° West 420 483 25,800 1,388 Climbing New York Center
Tue 08:26:03 AM 40.7744 -75.5719 259° West 426 490 27,000 1,169 Climbing New York Center
Tue 08:27:00 AM 40.7492 -75.7292 258° West 437 503 28,100 1,068 Climbing New York Center
Tue 08:28:01 AM 40.7269 -75.8589 257° West 444 511 29,100 1,082 Climbing New York Center
Tue 08:29:02 AM 40.7011 -76.0239 258° West 455 524 30,300 1,200 Climbing New York Center
Tue 08:30:01 AM 40.6719 -76.2050 258° West 460 529 31,500 1,350 Climbing New York Center
Tue 08:31:02 AM 40.6808 -76.3756 274° West 462 532 33,000 1,650 Climbing New York Center
Tue 08:32:01 AM 40.7061 -76.5419 281° West 462 532 34,800 1,983 Climbing New York Center
Tue 08:33:00 AM 40.7317 -76.7003 282° West 456 525 36,900 2,168 Climbing New York Center
Tue 08:34:00 AM 40.7550 -76.8528 281° West 443 510 39,100 1,550 Climbing New York Center
Tue 08:35:00 AM 40.7783 -77.0058 281° West 431 496 40,000 450 Climbing New York Center
Tue 08:36:00 AM 40.7992 -77.1614 280° West 431 496 40,000  Level New York Center
Tue 08:38:20 AM 40.8575 -77.5517 281° West 456 525 40,000  Level Cleveland Center
Tue 08:39:22 AM 40.8783 -77.7158 280° West 453 521 40,000  Level Cleveland Center
Tue 08:40:24 AM 40.9006 -77.8739 281° West 441 507 40,000  Level Cleveland Center
Tue 08:41:26 AM 40.9225 -78.0333 280° West 443 510 40,000  Level Cleveland Center
Tue 08:42:28 AM 40.9414 -78.1903 279° West 435 501 40,000  Level Cleveland Center
Tue 08:43:30 AM 40.9614 -78.3611 279° West 444 511 40,000  Level Cleveland Center
Tue 08:44:32 AM 40.9819 -78.5236 280° West 450 518 40,000  Level Cleveland Center
Tue 08:45:34 AM 41.0086 -78.7258 280° West 465 535 40,000  Level Cleveland Center
Tue 08:46:36 AM 41.0267 -78.8889 278° West 456 525 40,000  Level Cleveland Center
Tue 08:47:38 AM 41.0419 -79.0503 277° West 448 516 40,000  Level Cleveland Center
Tue 08:48:40 AM 41.0600 -79.2156 278° West 453 521 40,000  Level Cleveland Center
Tue 08:49:42 AM 41.0797 -79.3806 279° West 456 525 40,000  Level Cleveland Center
Tue 08:50:44 AM 41.1022 -79.5792 279° West 457 526 40,000  Level Cleveland Center
Tue 08:51:46 AM 41.1197 -79.7469 278° West 457 526 40,000  Level Cleveland Center
Tue 08:52:48 AM 41.1378 -79.9125 278° West 456 525 40,000  Level Cleveland Center
Tue 08:53:50 AM 41.1564 -80.0758 279° West 460 529 40,000  Level Cleveland Center
Tue 08:54:52 AM 41.1731 -80.2433 278° West 462 532 40,000  Level Cleveland Center
Tue 08:55:54 AM 41.1925 -80.4258 278° West 462 532 40,000  Level Cleveland Center
Tue 08:56:56 AM 41.2092 -80.5958 277° West 462 532 40,000  Level Cleveland Center
Tue 08:57:58 AM 41.2261 -80.7669 278° West 463 533 40,000  Level Cleveland Center
Tue 08:59:00 AM 41.2461 -80.9656 278° West 463 533 40,000  Level Cleveland Center
Tue 09:00:03 AM 41.2633 -81.1381 278° West 467 537 40,000  Level Cleveland Center
Tue 09:01:05 AM 41.2797 -81.3100 277° West 467 537 40,000  Level Cleveland Center
Tue 09:02:07 AM 41.2975 -81.4928 277° West 469 540 40,000  Level Cleveland Center
Tue 09:03:09 AM 41.3133 -81.6658 277° West 472 543 40,000  Level Cleveland Center
Tue 09:04:11 AM 41.3286 -81.8408 277° West 477 549 40,000  Level Cleveland Center
Tue 09:05:13 AM 41.3436 -82.0150 277° West 475 547 40,000  Level Cleveland Center
Tue 09:06:15 AM 41.3594 -82.2008 277° West 472 543 40,000  Level Cleveland Center
Tue 09:07:17 AM 41.3700 -82.3769 275° West 474 545 40,000  Level Cleveland Center
Tue 09:08:19 AM 41.3806 -82.5550 275° West 476 548 40,000  Level Cleveland Center
Tue 09:09:21 AM 41.3922 -82.7628 274° West 481 554 40,000  Level Cleveland Center
Tue 09:10:23 AM 41.4025 -82.9419 274° West 481 554 40,000  Level Cleveland Center
Tue 09:11:25 AM 41.4119 -83.1219 274° West 482 555 40,000  Level Cleveland Center
Tue 09:12:27 AM 41.4208 -83.3050 274° West 483 556 40,000  Level Cleveland Center
Tue 09:13:29 AM 41.4283 -83.4842 273° West 484 557 40,000  Level Cleveland Center
Tue 09:14:32 AM 41.4381 -83.6633 274° West 483 556 40,000  Level Cleveland Center
Tue 09:15:34 AM 41.4458 -83.8428 273° West 485 558 40,000  Level Cleveland Center
Tue 09:16:36 AM 41.4544 -84.0225 274° West 486 559 40,000  Level Cleveland Center
Tue 09:17:38 AM 41.4633 -84.2403 273° West 490 564 40,000  Level Cleveland Center
Tue 09:18:32 AM 41.4703 -84.3739 274° West 489 563 40,000  Level Chicago Center
Tue 09:19:34 AM 41.4786 -84.5925 273° West 493 567 40,000  Level Chicago Center
Tue 09:20:36 AM 41.4858 -84.7736 273° West 491 565 40,000 145 Level Chicago Center
Tue 09:21:38 AM 41.4917 -84.9556 273° West 492 566 40,300 532 Climbing Chicago Center
Tue 09:22:40 AM 41.4978 -85.1353 273° West 486 559 41,100 774 Climbing Chicago Center
Tue 09:23:42 AM 41.5019 -85.3108 272° West 471 542 41,900 774 Climbing Chicago Center
Tue 09:24:44 AM 41.5075 -85.4906 272° West 469 540 42,700 532 Climbing Chicago Center
Tue 09:25:46 AM 41.5139 -85.6647 273° West 462 532 43,000 145 Climbing Chicago Center
Tue 09:26:48 AM 41.5194 -85.8419 272° West 474 545 43,000  Level Chicago Center
Tue 09:27:51 AM 41.5247 -86.0564 272° West 481 554 43,000  Level Chicago Center
Tue 09:28:53 AM 41.5278 -86.2358 271° West 483 556 43,000  Level Chicago Center
Tue 09:29:55 AM 41.5319 -86.4158 272° West 487 560 43,000  Level Chicago Center
Tue 09:30:57 AM 41.5333 -86.5969 271° West 486 559 43,000  Level Chicago Center
Tue 09:31:59 AM 41.5364 -86.7964 271° West 493 567 43,000  Level Chicago Center
Tue 09:33:01 AM 41.5394 -86.9772 271° West 490 564 43,000  Level Chicago Center
Tue 09:34:03 AM 41.5411 -87.1589 271° West 491 565 43,000  Level Chicago Center
Tue 09:35:05 AM 41.5425 -87.3372 271° West 486 559 43,000  Level Chicago Center
Tue 09:36:07 AM 41.5439 -87.5533 271° West 489 563 43,000  Level Chicago Center
Tue 09:37:09 AM 41.5444 -87.7336 270° West 491 565 43,000  Level Chicago Center
Tue 09:38:11 AM 41.5456 -87.9108 271° West 488 562 43,000  Level Chicago Center
Tue 09:39:14 AM 41.5481 -88.0861 271° West 489 563 43,000  Level Chicago Center
Tue 09:40:16 AM 41.5467 -88.2997 270° West 492 566 43,000  Level Chicago Center
Tue 09:41:18 AM 41.5475 -88.4794 270° West 490 564 43,000  Level Chicago Center
Tue 09:42:20 AM 41.5475 -88.6581 270° West 487 560 43,000  Level Chicago Center
Tue 09:43:22 AM 41.5478 -88.8394 270° West 489 563 43,000  Level Chicago Center
Tue 09:44:24 AM 41.5497 -89.0564 271° West 493 567 43,000  Level Chicago Center
Tue 09:45:26 AM 41.5492 -89.2403 270° West 497 572 43,000  Level Chicago Center
Tue 09:46:28 AM 41.5483 -89.4233 270° West 499 574 43,000  Level Chicago Center
Tue 09:47:30 AM 41.5478 -89.6197 270° West 498 573 43,000  Level Chicago Center
Tue 09:48:32 AM 41.5472 -89.8047 270° West 501 577 43,000  Level Chicago Center
Tue 09:49:35 AM 41.5456 -89.9892 269° West 500 575 43,000  Level Chicago Center
Tue 09:50:37 AM 41.5439 -90.1728 269° West 498 573 43,000  Level Chicago Center
Tue 09:51:39 AM 41.5400 -90.3617 268° West 510 587 43,000  Level Chicago Center
Tue 09:52:41 AM 41.5381 -90.5792 269° West 496 571 43,000  Level Chicago Center
Tue 09:53:43 AM 41.5353 -90.7394 269° West 486 559 43,000  Level Chicago Center
Tue 09:54:45 AM 41.5319 -90.9575 269° West 491 565 43,000  Level Chicago Center
Tue 09:55:47 AM 41.5286 -91.1372 269° West 488 562 43,000  Level Chicago Center
Tue 09:56:49 AM 41.5250 -91.3172 269° West 488 562 43,000  Level Chicago Center
Tue 09:57:51 AM 41.5214 -91.4975 269° West 488 562 43,000  Level Chicago Center
Tue 09:58:54 AM 41.5164 -91.6769 268° West 488 562 43,000  Level Chicago Center
Tue 09:59:56 AM 41.5111 -91.8572 268° West 490 564 43,000  Level Chicago Center
Tue 10:00:58 AM 41.5039 -92.0717 267° West 487 560 43,000  Level Chicago Center
Tue 10:02:00 AM 41.4967 -92.2525 267° West 491 565 43,000  Level Chicago Center
Tue 10:03:02 AM 41.4917 -92.4242 268° West 494 568 43,000  Level Chicago Center
Tue 10:04:04 AM 41.4822 -92.6372 267° West 488 562 43,000  Level Chicago Center
Tue 10:04:38 AM 41.4797 -92.7114 267° West 491 565 43,000  Level Minneapolis Center
Tue 10:05:39 AM 41.4708 -92.9272 267° West 490 564 43,000  Level Minneapolis Center
Tue 10:06:41 AM 41.4628 -93.1069 267° West 491 565 43,000  Level Minneapolis Center
Tue 10:07:42 AM 41.4544 -93.2858 267° West 490 564 43,000  Level Minneapolis Center
Tue 10:08:44 AM 41.4461 -93.4661 267° West 491 565 43,000  Level Minneapolis Center
Tue 10:09:46 AM 41.4375 -93.6450 266° West 490 564 43,000  Level Minneapolis Center
Tue 10:10:47 AM 41.4386 -93.8217 271° West 489 563 43,000  Level Minneapolis Center
Tue 10:11:49 AM 41.4425 -94.0361 271° West 489 563 43,000  Level Minneapolis Center
Tue 10:12:50 AM 41.4428 -94.2222 270° West 489 563 43,000  Level Minneapolis Center
Tue 10:13:52 AM 41.4414 -94.4042 269° West 490 564 43,000  Level Minneapolis Center
Tue 10:14:54 AM 41.4403 -94.5856 270° West 489 563 43,000  Level Minneapolis Center
Tue 10:15:55 AM 41.4406 -94.7667 270° West 488 562 43,000  Level Minneapolis Center
Tue 10:16:57 AM 41.4394 -94.9475 270° West 488 562 43,000  Level Minneapolis Center
Tue 10:18:00 AM 41.4403 -95.1275 270° West 488 562 43,000  Level Minneapolis Center
Tue 10:19:01 AM 41.4375 -95.3456 269° West 490 564 43,000  Level Minneapolis Center
Tue 10:20:03 AM 41.4353 -95.5278 269° West 493 567 43,000  Level Minneapolis Center
Tue 10:21:05 AM 41.4342 -95.7217 270° West 492 566 43,000  Level Minneapolis Center
Tue 10:22:07 AM 41.4319 -95.9025 269° West 488 562 43,000  Level Minneapolis Center
Tue 10:23:08 AM 41.4300 -96.0839 269° West 489 563 43,000  Level Minneapolis Center
Tue 10:24:10 AM 41.4261 -96.2639 268° West 487 560 43,000  Level Minneapolis Center
Tue 10:25:12 AM 41.4239 -96.4539 269° West 490 564 43,000  Level Minneapolis Center
Tue 10:26:14 AM 41.4211 -96.6353 269° West 491 565 43,000  Level Minneapolis Center
Tue 10:27:15 AM 41.4175 -96.8164 269° West 491 565 43,000  Level Minneapolis Center
Tue 10:28:17 AM 41.4131 -96.9950 268° West 486 559 43,000  Level Minneapolis Center
Tue 10:29:19 AM 41.4086 -97.1731 268° West 483 556 43,000  Level Minneapolis Center
Tue 10:30:21 AM 41.4028 -97.3889 268° West 485 558 43,000  Level Minneapolis Center
Tue 10:31:23 AM 41.3978 -97.5694 268° West 488 562 43,000  Level Minneapolis Center
Tue 10:32:25 AM 41.3922 -97.7492 268° West 488 562 43,000  Level Minneapolis Center
Tue 10:33:27 AM 41.3861 -97.9267 267° West 482 555 43,000  Level Minneapolis Center
Tue 10:34:29 AM 41.3806 -98.1047 268° West 481 554 43,000  Level Minneapolis Center
Tue 10:35:30 AM 41.3719 -98.3114 267° West 483 556 43,000  Level Minneapolis Center
Tue 10:36:32 AM 41.3675 -98.4622 268° West 484 557 43,000  Level Minneapolis Center
Tue 10:37:34 AM 41.3583 -98.6764 267° West 484 557 43,000  Level Minneapolis Center
Tue 10:38:36 AM 41.3492 -98.8539 266° West 483 556 43,000  Level Minneapolis Center
Tue 10:39:38 AM 41.3356 -99.0261 264° West 477 549 43,000  Level Minneapolis Center
Tue 10:40:40 AM 41.3008 -99.2147 256° West 474 545 43,000  Level Minneapolis Center
Tue 10:41:43 AM 41.2733 -99.3844 258° West 473 544 43,000  Level Denver Center
Tue 10:42:45 AM 41.2450 -99.5608 258° West 474 545 43,000  Level Denver Center
Tue 10:43:47 AM 41.2194 -99.7239 258° West 473 544 43,000  Level Denver Center
Tue 10:44:49 AM 41.1889 -99.9125 258° West 470 541 43,000  Level Denver Center
Tue 10:45:51 AM 41.1622 -100.0733 258° West 468 539 43,000  Level Denver Center
Tue 10:46:53 AM 41.1311 -100.2625 258° West 470 541 43,000  Level Denver Center
Tue 10:47:55 AM 41.1047 -100.4233 258° West 469 540 43,000  Level Denver Center
Tue 10:48:58 AM 41.0728 -100.6111 257° West 471 542 43,000  Level Denver Center
Tue 10:50:00 AM 41.0425 -100.7989 258° West 473 544 43,000  Level Denver Center
Tue 10:51:02 AM 41.0122 -100.9575 256° West 472 543 43,000  Level Denver Center
Tue 10:52:04 AM 40.9797 -101.1433 257° West 469 540 43,000  Level Denver Center
Tue 10:53:06 AM 40.9519 -101.3031 257° West 469 540 43,000  Level Denver Center
Tue 10:54:08 AM 40.9192 -101.4875 257° West 463 533 43,000  Level Denver Center
Tue 10:55:10 AM 40.8914 -101.6469 257° West 465 535 43,000  Level Denver Center
Tue 10:56:12 AM 40.8589 -101.8297 257° West 462 532 43,000  Level Denver Center
Tue 10:57:14 AM 40.8303 -101.9867 257° West 461 531 43,000  Level Denver Center
Tue 10:58:16 AM 40.7958 -102.1706 256° West 462 532 43,000  Level Denver Center
Tue 10:59:18 AM 40.7664 -102.3272 256° West 461 531 43,000  Level Denver Center
Tue 11:00:20 AM 40.7361 -102.4844 256° West 463 533 43,000  Level Denver Center
Tue 11:01:22 AM 40.7022 -102.6669 256° West 461 531 43,000 -1,258 Level Denver Center
Tue 11:02:24 AM 40.6703 -102.8347 256° West 457 526 40,400 -2,903 Descending Denver Center
Tue 11:03:26 AM 40.6397 -102.9961 256° West 457 526 37,000 -3,339 Descending Denver Center
Tue 11:04:28 AM 40.6078 -103.1561 255° West 455 524 33,500 -3,360 Descending Denver Center
Tue 11:05:31 AM 40.5786 -103.3117 256° West 442 509 30,000 -2,832 Descending Denver Center
Tue 11:06:33 AM 40.5461 -103.4778 256° West 393 452 27,600 -2,129 Descending Denver Center
Tue 11:07:35 AM 40.5194 -103.6064 255° West 369 425 25,600 -1,887 Descending Denver Center
Tue 11:08:37 AM 40.4944 -103.7347 256° West 365 420 23,700 -1,839 Descending Denver Center
Tue 11:09:39 AM 40.4644 -103.8583 252° West 359 413 21,800 -1,887 Descending Denver Center
Tue 11:10:41 AM 40.3917 -103.9575 226° Southwest 332 382 19,800 -1,742 Descending Denver Center
Tue 11:11:43 AM 40.3486 -104.0569 240° Southwest 320 368 18,200 -1,645 Descending Denver Center
Tue 11:12:45 AM 40.3092 -104.1711 246° West 320 368 16,400 -1,694 Descending Denver Center
Tue 11:13:47 AM 40.2744 -104.2753 246° West 314 361 14,700 -1,597 Descending Denver Center
Tue 11:14:49 AM 40.2375 -104.3881 247° West 314 361 13,100 -968 Descending Denver Center
Tue 11:15:51 AM 40.2119 -104.4956 253° West 313 360 12,700 -726 Descending Denver Center
Tue 11:16:53 AM 40.1942 -104.6158 259° West 314 361 11,600 -745 Descending Denver Center
Tue 11:18:08 AM 40.1756 -104.7531 260° West 313 360 11,000 -307 Descending Denver Center
Tue 11:19:10 AM 40.1614 -104.8622 260° West 308 354 10,900 -823 Descending Denver Center
Tue 11:20:12 AM 40.1403 -104.9650 255° West 285 328 9,300 -919 Descending Denver Center
Tue 11:21:14 AM 40.0703 -104.9644 180° South 261 300 9,000 -387 Descending Denver Center
Tue 11:22:16 AM 39.9978 -104.9464 169° South 251 289 8,500 -968 Descending Denver Center
Tue 11:23:18 AM 39.9317 -104.9472 181° South 241 277 7,000 -726 Descending Denver Center
Tue 11:24:20 AM 39.8808 -104.9872 211° Southwest 197 227 7,000 -194 Level Denver Center
Tue 11:25:22 AM 39.8739 -105.0483 262° West 177 204 6,600 -629 Descending Denver Center
Tue 11:26:24 AM 39.8992 -105.0986 303° West 152 175 5,700 -871 Descending Denver Center
Tue 11:28:00 AM 39.9000 -105.1167 225° Southwest  Level FlightAware Approximate
Tue 11:35:00 AM 39.9088 -105.1172 225° Southwest  Level Estimated

Login

Don't have an account? Register now (free) for customized features, flight alerts, and more!